createdAt,value
2022-10-30T00:00:01.686Z,78.9
2022-10-30T00:05:01.351Z,78.89
2022-10-30T00:10:01.394Z,79.06
2022-10-30T00:15:01.578Z,79.75
2022-10-30T00:20:01.611Z,79.83
2022-10-30T00:25:01.479Z,79.7
2022-10-30T00:30:01.476Z,79.31
2022-10-30T00:35:01.875Z,79.23
2022-10-30T00:40:01.874Z,78.93
2022-10-30T00:45:01.418Z,77.48
2022-10-30T00:50:01.581Z,76.53
2022-10-30T00:55:01.595Z,75.95
2022-10-30T01:00:08.481Z,75.52
2022-10-30T01:05:06.343Z,75.98
2022-10-30T01:10:04.899Z,76.06
2022-10-30T01:15:08.114Z,76.98
2022-10-30T01:20:03.985Z,77.38
2022-10-30T01:25:05.249Z,77.96
2022-10-30T01:30:02.006Z,77.56
2022-10-30T01:35:01.971Z,77.26
2022-10-30T01:40:01.809Z,77.38
2022-10-30T01:45:01.625Z,77.87
2022-10-30T01:50:01.584Z,78.32
2022-10-30T01:55:01.748Z,78.47
2022-10-30T02:00:01.765Z,78.62
2022-10-30T02:05:02.319Z,79.32
2022-10-30T02:10:01.787Z,79.17
2022-10-30T02:15:02.055Z,79.51
2022-10-30T02:20:01.899Z,79.61
2022-10-30T02:25:01.603Z,79.96
2022-10-30T02:30:01.537Z,80.22
2022-10-30T02:35:01.425Z,80.32
2022-10-30T02:40:01.578Z,80.14
2022-10-30T02:45:01.499Z,80.15
2022-10-30T02:50:01.796Z,80.48
2022-10-30T02:55:01.945Z,81.02
2022-10-30T03:00:01.863Z,81.35
2022-10-30T03:05:01.930Z,81.32
2022-10-30T03:10:02.115Z,81.63
2022-10-30T03:15:02.197Z,81.86
2022-10-30T03:20:02.185Z,81.75
2022-10-30T03:25:02.084Z,81.87
2022-10-30T03:30:01.942Z,81.88
2022-10-30T03:35:01.991Z,82.1
2022-10-30T03:40:01.822Z,82.86
2022-10-30T03:45:01.858Z,83.28
2022-10-30T03:50:01.589Z,83.08
2022-10-30T03:55:01.964Z,83.05
2022-10-30T04:00:01.268Z,83.38
2022-10-30T04:05:02.049Z,83.86
2022-10-30T04:10:01.294Z,84.43
2022-10-30T04:15:01.483Z,84.65
2022-10-30T04:20:01.935Z,84.22
2022-10-30T04:25:01.901Z,84.47
2022-10-30T04:30:02.019Z,84.89
2022-10-30T04:35:01.884Z,84.98
2022-10-30T04:40:02.109Z,84.91
2022-10-30T04:45:04.878Z,84.6
2022-10-30T04:50:02.051Z,84.81
2022-10-30T04:55:02.028Z,84.84
2022-10-30T05:00:01.544Z,84.76
2022-10-30T05:05:01.678Z,85.09
2022-10-30T05:10:01.716Z,85.62
2022-10-30T05:15:01.850Z,87.2
2022-10-30T05:20:02.270Z,89.68
2022-10-30T05:25:01.333Z,90.75
2022-10-30T05:30:01.374Z,92.01
2022-10-30T05:35:01.443Z,91.77
2022-10-30T05:40:01.900Z,92.74
2022-10-30T05:45:02.327Z,94.2
2022-10-30T05:50:01.802Z,94.19
2022-10-30T05:55:01.663Z,94.25
2022-10-30T06:00:01.757Z,94.63
2022-10-30T06:05:01.861Z,94.77
2022-10-30T06:10:01.537Z,94.93
2022-10-30T06:15:01.586Z,94.92
2022-10-30T06:20:01.910Z,93.71
2022-10-30T06:25:02.122Z,92.09
2022-10-30T06:30:01.713Z,91.62
2022-10-30T06:35:02.066Z,91.13
2022-10-30T06:40:01.834Z,90.85
2022-10-30T06:45:01.847Z,90.8
2022-10-30T06:50:01.660Z,90.36
2022-10-30T06:55:01.905Z,90.06
2022-10-30T07:00:02.031Z,90.22
2022-10-30T07:05:02.255Z,90.77
2022-10-30T07:10:02.184Z,90.74
2022-10-30T07:15:02.152Z,92.1
2022-10-30T07:20:01.717Z,93.45
2022-10-30T07:25:01.829Z,93.82
2022-10-30T07:30:01.831Z,93.83
2022-10-30T07:35:02.154Z,93.72
2022-10-30T07:40:02.076Z,93.7
2022-10-30T07:45:02.308Z,94.41
2022-10-30T07:50:01.258Z,92.55
2022-10-30T07:55:01.433Z,91.26
2022-10-30T08:00:04.416Z,89.52
2022-10-30T08:05:01.504Z,88.53
2022-10-30T08:10:01.705Z,87.27
2022-10-30T08:15:01.661Z,87.3
2022-10-30T08:20:01.688Z,87.12
2022-10-30T08:25:01.406Z,86.36
2022-10-30T08:30:01.771Z,86.11
2022-10-30T08:35:01.357Z,85.53
2022-10-30T08:40:01.328Z,84.9
2022-10-30T08:45:01.543Z,84.29
2022-10-30T08:50:01.573Z,84.27
2022-10-30T08:55:01.617Z,83.27
2022-10-30T09:00:01.631Z,83.09
2022-10-30T09:05:01.915Z,83.09
2022-10-30T09:10:02.017Z,82.69
2022-10-30T09:15:01.893Z,82.97
2022-10-30T09:20:01.935Z,81.83
2022-10-30T09:25:01.841Z,80.44
2022-10-30T09:30:02.045Z,80.23
2022-10-30T09:35:02.088Z,80.51
2022-10-30T09:40:01.973Z,80.77
2022-10-30T09:45:27.261Z,80.48
2022-10-30T09:50:02.043Z,80.53
2022-10-30T09:55:02.174Z,80.41
2022-10-30T10:00:01.571Z,79.93
2022-10-30T10:05:01.701Z,79.71
2022-10-30T10:10:02.217Z,78.42
2022-10-30T10:15:02.029Z,77.06
2022-10-30T10:20:01.300Z,77.62
2022-10-30T10:25:01.299Z,76.22
2022-10-30T10:30:01.463Z,75.78
2022-10-30T10:35:01.662Z,75.61
2022-10-30T10:40:01.696Z,75.42
2022-10-30T10:45:01.743Z,74.98
2022-10-30T10:50:01.731Z,75.2
2022-10-30T10:55:01.573Z,74.93
2022-10-30T11:00:01.814Z,74.43
2022-10-30T11:05:01.791Z,74.14
2022-10-30T11:10:01.860Z,74.1
2022-10-30T11:15:01.895Z,73.27
2022-10-30T11:20:01.899Z,72.68
2022-10-30T11:25:02.256Z,73.07
2022-10-30T11:30:02.056Z,71.21
2022-10-30T11:35:02.109Z,70.66
2022-10-30T11:40:02.108Z,69.97
2022-10-30T11:45:02.263Z,70.13
2022-10-30T11:50:02.147Z,70.49
2022-10-30T11:55:02.125Z,69.74
2022-10-30T12:00:04.979Z,70.6
2022-10-30T12:05:02.119Z,71.45
2022-10-30T12:10:01.544Z,71.14
2022-10-30T12:15:01.813Z,71.53
2022-10-30T12:20:01.451Z,72.21
2022-10-30T12:25:01.378Z,72.69
2022-10-30T12:30:09.746Z,73.27
2022-10-30T12:35:01.853Z,73.46
2022-10-30T12:40:02.178Z,73.82
2022-10-30T12:45:01.859Z,72.63
2022-10-30T12:50:02.425Z,72.39
2022-10-30T12:55:02.175Z,72.39
2022-10-30T13:00:02.190Z,72.86
2022-10-30T13:05:02.131Z,73.24
2022-10-30T13:10:01.961Z,73.81
2022-10-30T13:15:02.099Z,73.31
2022-10-30T13:20:01.271Z,73.44
2022-10-30T13:25:03.921Z,74.21
2022-10-30T13:30:01.733Z,74.43
2022-10-30T13:35:01.676Z,75
2022-10-30T13:40:01.615Z,76
2022-10-30T13:45:01.670Z,75.85
2022-10-30T13:50:01.736Z,75.98
2022-10-30T13:55:01.751Z,76.65
2022-10-30T14:00:01.683Z,76.84
2022-10-30T14:05:01.760Z,76.72
2022-10-30T14:10:01.971Z,77.31
2022-10-30T14:15:01.302Z,77.4
2022-10-30T14:20:01.414Z,77.9
2022-10-30T14:25:01.694Z,77.58
2022-10-30T14:30:01.649Z,75.75
2022-10-30T14:35:02.227Z,74.87
2022-10-30T14:40:02.221Z,75.27
2022-10-30T14:45:02.057Z,76.14
2022-10-30T14:50:01.914Z,77.78
2022-10-30T14:55:01.923Z,79.06
2022-10-30T15:00:01.842Z,79.61
2022-10-30T15:05:05.430Z,80.24
2022-10-30T15:10:01.920Z,80.36
2022-10-30T15:15:02.214Z,77.09
2022-10-30T15:20:02.161Z,76.38
2022-10-30T15:25:02.037Z,74.7
2022-10-30T15:30:02.309Z,76.14
2022-10-30T15:35:02.000Z,74.67
2022-10-30T15:40:01.878Z,74.55
2022-10-30T15:45:02.140Z,73.59
2022-10-30T15:50:01.261Z,72.86
2022-10-30T15:55:01.323Z,71.54
2022-10-30T16:00:01.509Z,72.11
2022-10-30T16:05:01.963Z,72.16
2022-10-30T16:10:01.424Z,72.17
2022-10-30T16:15:01.894Z,72.17
2022-10-30T16:20:02.021Z,72.84
2022-10-30T16:25:01.315Z,72.64
2022-10-30T16:30:01.363Z,72.35
2022-10-30T16:35:01.449Z,72.37
2022-10-30T16:40:01.629Z,72.66
2022-10-30T16:45:01.343Z,73.25
2022-10-30T16:50:01.484Z,74.35
2022-10-30T16:55:02.012Z,75.35
2022-10-30T17:00:01.705Z,75.79
2022-10-30T17:05:02.230Z,77.87
2022-10-30T17:10:02.226Z,78.09
2022-10-30T17:15:01.926Z,79.14
2022-10-30T17:20:02.038Z,79.32
2022-10-30T17:25:01.507Z,80.93
2022-10-30T17:30:02.453Z,80.51
2022-10-30T17:35:01.876Z,82.37
2022-10-30T17:40:02.015Z,82.28
2022-10-30T17:45:01.536Z,82.29
2022-10-30T17:50:01.404Z,83.3
2022-10-30T17:55:02.411Z,84.24
2022-10-30T18:00:02.200Z,84.4
2022-10-30T18:05:01.573Z,85.1
2022-10-30T18:10:02.610Z,85.96
2022-10-30T18:15:01.536Z,86.14
2022-10-30T18:20:01.764Z,86.75
2022-10-30T18:25:01.862Z,87.85
2022-10-30T18:30:02.239Z,88.5
2022-10-30T18:35:01.928Z,88.94
2022-10-30T18:40:02.275Z,89.36
2022-10-30T18:45:02.380Z,89.58
2022-10-30T18:50:02.118Z,89.62
2022-10-30T18:55:01.808Z,89.41
2022-10-30T19:00:02.327Z,88.74
2022-10-30T19:05:02.260Z,88.36
2022-10-30T19:10:01.676Z,88.98
2022-10-30T19:15:01.927Z,89.46
2022-10-30T19:20:01.721Z,89.74
2022-10-30T19:25:01.638Z,90.16
2022-10-30T19:30:02.381Z,90.16
2022-10-30T19:35:02.067Z,90.32
2022-10-30T19:40:01.877Z,90.41
2022-10-30T19:45:01.837Z,91.1
2022-10-30T19:50:01.556Z,91.35
2022-10-30T19:55:01.778Z,90.89
2022-10-30T20:00:02.218Z,90.39
2022-10-30T20:05:02.168Z,89.65
2022-10-30T20:10:01.986Z,89.25
2022-10-30T20:15:02.439Z,89.12
2022-10-30T20:20:02.028Z,89.33
2022-10-30T20:25:02.219Z,89.03
2022-10-30T20:30:02.265Z,88.46
2022-10-30T20:35:07.399Z,88.36
2022-10-30T20:40:01.922Z,88.91
2022-10-30T20:45:01.860Z,89.21
2022-10-30T20:50:01.918Z,89.61
2022-10-30T20:55:01.638Z,89.68
2022-10-30T21:00:02.376Z,89.75
2022-10-30T21:05:12.173Z,89.17
2022-10-30T21:10:02.472Z,88.73
2022-10-30T21:15:02.327Z,88.55
2022-10-30T21:20:01.764Z,87.97
2022-10-30T21:25:01.789Z,87.99
2022-10-30T21:30:02.272Z,88.46
2022-10-30T21:35:02.228Z,89.54
2022-10-30T21:40:02.167Z,89.68
2022-10-30T21:45:03.042Z,89.65
2022-10-30T21:50:05.987Z,89.85
2022-10-30T21:55:02.480Z,89.91
2022-10-30T22:00:05.928Z,89.98
2022-10-30T22:05:02.266Z,90.33
2022-10-30T22:10:02.534Z,91
2022-10-30T22:15:02.270Z,91.52
2022-10-30T22:20:01.756Z,91.71
2022-10-30T22:25:02.820Z,91.74
2022-10-30T22:30:11.131Z,91.48
2022-10-30T22:35:02.140Z,91.69
2022-10-30T22:40:03.776Z,91.87
2022-10-30T22:45:02.282Z,92.42
2022-10-30T22:50:01.976Z,92.84
2022-10-30T22:55:02.682Z,93.2
2022-10-30T23:00:02.650Z,93.86
2022-10-30T23:05:02.382Z,94.96
2022-10-30T23:10:02.760Z,95.23
2022-10-30T23:15:03.865Z,95.41
2022-10-30T23:20:02.982Z,95.93
2022-10-30T23:25:02.798Z,96.52
2022-10-30T23:30:02.330Z,97.11
2022-10-30T23:35:04.246Z,96.84
2022-10-30T23:40:02.812Z,96.92
2022-10-30T23:45:02.964Z,97.14
2022-10-30T23:50:01.654Z,97.26
2022-10-30T23:55:02.204Z,97.21
